Sid Moller — WDF9421 — position and weather

sailwx.info

Track history (hours):
 
Tides and Currents Weather Stations Pressure Air Temp Water Temp Dewpoint Dewpoint Depression Visibility Wind Speed Wind Dir Waves Ship Positions

Sid Moller

Owner: Genesis Marine, LLC, Houston, TX. More information available from US FCC via Universal Licensing System and Coast Guard Vessel Documentation Center.

Last reported at 2016-May-26 14:06 UTC. Time now 2016-May-27 12:22 UTC.
Position N 29°45' W 095°06'.

; draft 3.3 m.

MMSI: 367504980.

Date/timePositionNaut miles runAvg speedWind from/ knotsBaromVisibWave heightAir tempDewpointWater temp
2016-May-26 14:06N 29°45' W 095°06'1 0.0
2016-May-25 02:15N 29°46' W 095°05'3 4.8
2016-May-25 01:34N 29°44' W 095°02'1 0.0
2016-May-23 22:33N 29°44' W 095°03'3 0.2
2016-May-23 06:17N 29°46' W 095°05'1 0.1
2016-May-22 09:31N 29°45' W 095°06'1 0.0
2016-May-20 07:26N 29°46' W 095°05'5 5.2
2016-May-20 06:33N 29°43' W 095°01'5 4.9
2016-May-20 05:33N 29°39' W 094°58'6 6.5
2016-May-20 04:33N 29°33' W 094°54'6 5.6
2016-May-20 03:31N 29°28' W 094°51'7 5.0
2016-May-20 02:07N 29°21' W 094°49'  
Track history (hours):
 
Tides and Currents Weather Stations Pressure Air Temp Water Temp Dewpoint Dewpoint Depression Visibility Wind Speed Wind Dir Waves Ship Positions

Sid Moller

Owner: Genesis Marine, LLC, Houston, TX. More information available from US FCC via Universal Licensing System and Coast Guard Vessel Documentation Center.

Last reported at 2016-May-26 14:06 UTC. Time now 2016-May-27 12:22 UTC.
Position N 29°45' W 095°06'.

; draft 3.3 m.

MMSI: 367504980.

Date/timePositionNaut miles runAvg speedWind from/ knotsBaromVisibWave heightAir tempDewpointWater temp
2016-May-26 14:06N 29°45' W 095°06'1 0.0
2016-May-25 02:15N 29°46' W 095°05'3 4.8
2016-May-25 01:34N 29°44' W 095°02'1 0.0
2016-May-23 22:33N 29°44' W 095°03'3 0.2
2016-May-23 06:17N 29°46' W 095°05'1 0.1
2016-May-22 09:31N 29°45' W 095°06'1 0.0
2016-May-20 07:26N 29°46' W 095°05'5 5.2
2016-May-20 06:33N 29°43' W 095°01'5 4.9
2016-May-20 05:33N 29°39' W 094°58'6 6.5
2016-May-20 04:33N 29°33' W 094°54'6 5.6
2016-May-20 03:31N 29°28' W 094°51'7 5.0
2016-May-20 02:07N 29°21' W 094°49'  

Dump ship's entire track history